createdAt,value
2018-11-07T00:01:13.572Z,6.60
2018-11-07T00:03:41.907Z,6.50
2018-11-07T00:06:10.212Z,6.40
2018-11-07T00:08:38.539Z,6.40
2018-11-07T00:11:06.865Z,6.30
2018-11-07T00:13:35.209Z,6.40
2018-11-07T00:16:03.523Z,6.20
2018-11-07T00:18:31.865Z,6.20
2018-11-07T00:21:00.195Z,6.10
2018-11-07T00:23:28.529Z,6.30
2018-11-07T00:25:56.841Z,6.30
2018-11-07T00:28:25.189Z,6.00
2018-11-07T00:30:53.489Z,6.10
2018-11-07T00:33:21.806Z,6.10
2018-11-07T00:35:50.127Z,6.30
2018-11-07T00:38:18.457Z,6.40
2018-11-07T00:40:46.755Z,6.40
2018-11-07T00:43:15.096Z,6.40
2018-11-07T00:45:43.422Z,6.70
2018-11-07T00:48:11.747Z,6.60
2018-11-07T00:50:40.076Z,6.40
2018-11-07T00:53:08.395Z,6.20
2018-11-07T00:55:36.696Z,6.00
2018-11-07T00:58:05.295Z,6.00
2018-11-07T01:00:33.657Z,5.90
2018-11-07T01:03:02.000Z,5.80
2018-11-07T01:05:30.309Z,5.90
2018-11-07T01:07:58.629Z,5.90
2018-11-07T01:10:26.947Z,6.20
2018-11-07T01:12:55.267Z,6.20
2018-11-07T01:15:23.564Z,6.30
2018-11-07T01:17:51.905Z,6.20
2018-11-07T01:20:20.220Z,6.20
2018-11-07T01:22:48.544Z,6.10
2018-11-07T01:25:16.869Z,6.20
2018-11-07T01:27:45.197Z,6.10
2018-11-07T01:30:14.500Z,6.00
2018-11-07T01:32:42.848Z,6.00
2018-11-07T01:35:11.148Z,5.80
2018-11-07T01:37:39.530Z,5.80
2018-11-07T01:40:09.987Z,5.80
2018-11-07T01:42:38.326Z,5.80
2018-11-07T01:45:07.720Z,5.70
2018-11-07T01:47:36.044Z,5.60
2018-11-07T01:50:05.191Z,5.40
2018-11-07T01:52:33.511Z,5.30
2018-11-07T01:55:01.829Z,5.30
2018-11-07T01:57:30.178Z,5.30
2018-11-07T01:59:58.483Z,5.20
2018-11-07T02:02:26.820Z,5.10
2018-11-07T02:04:55.145Z,5.00
2018-11-07T02:07:23.567Z,5.10
2018-11-07T02:09:51.889Z,5.20
2018-11-07T02:12:20.221Z,5.00
2018-11-07T02:14:48.543Z,5.00
2018-11-07T02:17:16.860Z,5.00
2018-11-07T02:19:45.188Z,4.90
2018-11-07T02:22:13.499Z,4.70
2018-11-07T02:24:41.819Z,4.80
2018-11-07T02:27:10.128Z,4.80
2018-11-07T02:29:38.521Z,4.80
2018-11-07T02:32:06.852Z,4.70
2018-11-07T02:34:35.184Z,4.70
2018-11-07T02:37:03.575Z,4.70
2018-11-07T02:39:31.873Z,4.70
2018-11-07T02:42:00.263Z,4.80
2018-11-07T02:44:28.572Z,4.80
2018-11-07T02:46:56.873Z,4.80
2018-11-07T02:49:25.189Z,4.90
2018-11-07T02:51:53.500Z,4.90
2018-11-07T02:54:21.931Z,4.90
2018-11-07T02:56:50.252Z,4.90
2018-11-07T02:59:18.585Z,4.90
2018-11-07T03:01:46.913Z,4.90
2018-11-07T03:04:15.245Z,5.00
2018-11-07T03:06:43.555Z,4.90
2018-11-07T03:09:11.885Z,4.90
2018-11-07T03:11:40.183Z,4.60
2018-11-07T03:14:09.532Z,4.60
2018-11-07T03:16:38.194Z,4.50
2018-11-07T03:19:07.007Z,4.50
2018-11-07T03:21:35.329Z,4.60
2018-11-07T03:24:03.699Z,4.60
2018-11-07T03:26:32.020Z,4.60
2018-11-07T03:29:00.327Z,4.70
2018-11-07T03:31:28.631Z,4.80
2018-11-07T03:33:56.968Z,4.80
2018-11-07T03:36:25.277Z,5.00
2018-11-07T03:38:53.626Z,5.00
2018-11-07T03:41:21.940Z,4.70
2018-11-07T03:43:50.310Z,4.80
2018-11-07T03:46:18.862Z,4.70
2018-11-07T03:48:47.203Z,4.40
2018-11-07T03:51:15.508Z,4.30
2018-11-07T03:53:43.841Z,4.40
2018-11-07T03:56:12.144Z,4.50
2018-11-07T03:58:40.460Z,4.40
2018-11-07T04:01:08.780Z,4.30
2018-11-07T04:03:37.112Z,4.30
2018-11-07T04:06:05.624Z,4.30
2018-11-07T04:08:33.949Z,4.40
2018-11-07T04:11:02.322Z,4.40
2018-11-07T04:13:30.644Z,4.40
2018-11-07T04:15:59.919Z,4.30
2018-11-07T04:18:28.305Z,4.30
2018-11-07T04:20:56.607Z,4.30
2018-11-07T04:23:24.981Z,4.40
2018-11-07T04:25:53.296Z,4.50
2018-11-07T04:28:21.620Z,4.50
2018-11-07T04:30:49.940Z,4.40
2018-11-07T04:33:18.240Z,4.30
2018-11-07T04:35:46.568Z,4.20
2018-11-07T04:38:14.885Z,4.20
2018-11-07T04:40:43.216Z,4.30
2018-11-07T04:43:11.517Z,4.30
2018-11-07T04:45:39.853Z,4.40
2018-11-07T04:48:08.174Z,4.50
2018-11-07T04:50:36.519Z,4.40
2018-11-07T04:53:04.860Z,4.20
2018-11-07T04:55:33.188Z,4.00
2018-11-07T04:58:01.498Z,3.90
2018-11-07T05:00:29.836Z,3.70
2018-11-07T05:02:58.163Z,3.70
2018-11-07T05:05:26.650Z,3.60
2018-11-07T05:07:55.004Z,3.60
2018-11-07T05:10:23.303Z,3.70
2018-11-07T05:12:51.596Z,3.70
2018-11-07T05:15:19.919Z,3.80
2018-11-07T05:17:48.221Z,3.90
2018-11-07T05:20:16.560Z,3.90
2018-11-07T05:22:44.872Z,4.00
2018-11-07T05:25:13.220Z,4.10
2018-11-07T05:27:42.148Z,4.00
2018-11-07T05:30:11.268Z,4.10
2018-11-07T05:32:39.745Z,4.00
2018-11-07T05:35:08.262Z,4.10
2018-11-07T05:37:36.584Z,4.00
2018-11-07T05:40:05.060Z,4.00
2018-11-07T05:42:33.380Z,4.10
2018-11-07T05:45:01.731Z,4.10
2018-11-07T05:47:30.051Z,4.20
2018-11-07T05:49:58.382Z,4.20
2018-11-07T05:52:26.688Z,4.10
2018-11-07T05:54:55.020Z,4.00
2018-11-07T05:57:23.329Z,4.00
2018-11-07T05:59:51.668Z,3.80
2018-11-07T06:02:19.972Z,3.70
2018-11-07T06:04:48.313Z,3.70
2018-11-07T06:07:16.627Z,3.80
2018-11-07T06:09:45.032Z,3.60
2018-11-07T06:12:13.332Z,3.60
2018-11-07T06:14:41.649Z,3.80
2018-11-07T06:17:09.951Z,3.90
2018-11-07T06:19:38.280Z,4.00
2018-11-07T06:22:06.613Z,4.10
2018-11-07T06:24:34.990Z,4.30
2018-11-07T06:27:03.433Z,4.30
2018-11-07T06:29:31.796Z,4.30
2018-11-07T06:32:00.180Z,4.30
2018-11-07T06:34:28.540Z,4.00
2018-11-07T06:36:56.958Z,4.00
2018-11-07T06:39:25.268Z,4.10
2018-11-07T06:41:53.620Z,4.00
2018-11-07T06:44:22.001Z,3.90
2018-11-07T06:46:50.390Z,3.90
2018-11-07T06:49:18.699Z,3.90
2018-11-07T06:51:47.029Z,4.00
2018-11-07T06:54:15.332Z,4.10
2018-11-07T06:56:43.660Z,4.10
2018-11-07T06:59:11.974Z,4.20
2018-11-07T07:01:40.300Z,4.30
2018-11-07T07:04:08.626Z,4.30
2018-11-07T07:06:36.949Z,4.50
2018-11-07T07:09:07.302Z,4.50
2018-11-07T07:11:35.776Z,4.60
2018-11-07T07:14:04.121Z,4.70
2018-11-07T07:16:32.446Z,4.80
2018-11-07T07:19:00.882Z,4.80
2018-11-07T07:21:29.241Z,4.90
2018-11-07T07:23:57.609Z,5.10
2018-11-07T07:26:25.993Z,5.10
2018-11-07T07:28:54.305Z,5.10
2018-11-07T07:31:22.645Z,5.00
2018-11-07T07:33:51.019Z,5.10
2018-11-07T07:36:19.304Z,5.00
2018-11-07T07:38:47.624Z,5.10
2018-11-07T07:41:15.936Z,5.10
2018-11-07T07:43:44.285Z,5.20
2018-11-07T07:46:12.652Z,5.40
2018-11-07T07:48:40.982Z,5.40
2018-11-07T07:51:09.327Z,5.50
2018-11-07T07:53:37.659Z,5.50
2018-11-07T07:56:05.988Z,5.50
2018-11-07T07:58:34.308Z,5.50
2018-11-07T08:01:02.640Z,5.50
2018-11-07T08:03:30.964Z,5.60
2018-11-07T08:05:59.287Z,5.80
2018-11-07T08:08:27.592Z,6.00
2018-11-07T08:10:55.943Z,6.20
2018-11-07T08:13:24.256Z,6.40
2018-11-07T08:15:52.591Z,6.50
2018-11-07T08:18:20.916Z,6.60
2018-11-07T08:20:49.237Z,6.80
2018-11-07T08:23:17.557Z,6.90
2018-11-07T08:25:45.905Z,7.00
2018-11-07T08:28:14.217Z,7.10
2018-11-07T08:30:42.589Z,7.20
2018-11-07T08:33:10.905Z,7.40
2018-11-07T08:35:39.236Z,7.70
2018-11-07T08:38:07.544Z,8.00
2018-11-07T08:40:35.876Z,8.10
2018-11-07T08:43:04.244Z,8.20
2018-11-07T08:45:32.599Z,8.20
2018-11-07T08:48:00.968Z,8.40
2018-11-07T08:50:29.289Z,8.60
2018-11-07T08:52:57.605Z,8.70
2018-11-07T08:55:25.893Z,8.80
2018-11-07T08:57:54.269Z,8.80
2018-11-07T09:00:24.147Z,8.90
2018-11-07T09:02:52.640Z,9.00
2018-11-07T09:05:22.467Z,9.10
2018-11-07T09:07:52.116Z,9.10
2018-11-07T09:10:21.898Z,9.30
2018-11-07T09:12:50.264Z,9.40
2018-11-07T09:15:21.099Z,9.60
2018-11-07T09:17:50.343Z,9.70
2018-11-07T09:20:20.168Z,9.80
2018-11-07T09:22:48.904Z,9.80
2018-11-07T09:25:17.749Z,9.80
2018-11-07T09:27:46.884Z,9.90
2018-11-07T09:30:17.810Z,10.00
2018-11-07T09:32:46.405Z,10.10
2018-11-07T09:35:15.106Z,10.20
2018-11-07T09:37:43.891Z,10.20
2018-11-07T09:40:15.329Z,10.20
2018-11-07T09:42:44.544Z,10.30
2018-11-07T09:45:14.750Z,10.30
2018-11-07T09:47:43.965Z,10.40
2018-11-07T09:50:13.299Z,10.50
2018-11-07T09:52:42.320Z,10.50
2018-11-07T09:55:12.741Z,10.60
2018-11-07T09:57:41.637Z,10.70
2018-11-07T10:00:13.796Z,10.80
2018-11-07T10:02:42.775Z,11.00
2018-11-07T10:05:12.150Z,11.20
2018-11-07T10:07:41.333Z,11.30
2018-11-07T10:10:13.579Z,11.40
2018-11-07T10:12:42.611Z,11.50
2018-11-07T10:15:11.424Z,11.60
2018-11-07T10:17:39.763Z,11.70
2018-11-07T10:20:10.656Z,11.70
2018-11-07T10:22:39.008Z,11.70
2018-11-07T10:25:07.778Z,11.90
2018-11-07T10:27:36.453Z,12.00
2018-11-07T10:30:05.470Z,12.10
2018-11-07T10:32:33.565Z,12.20
2018-11-07T10:35:01.942Z,12.30
2018-11-07T10:37:32.465Z,12.30
2018-11-07T10:39:58.733Z,12.40
2018-11-07T10:42:27.032Z,12.40
2018-11-07T10:44:56.993Z,12.60
2018-11-07T10:47:26.563Z,12.60
2018-11-07T10:49:54.937Z,12.60
2018-11-07T10:52:55.745Z,12.60
2018-11-07T10:55:24.052Z,12.70
2018-11-07T10:57:52.391Z,12.70
2018-11-07T11:00:26.122Z,12.70
2018-11-07T11:03:13.873Z,12.70
2018-11-07T11:05:42.230Z,12.60
2018-11-07T11:08:10.754Z,12.70
2018-11-07T11:10:39.437Z,12.90
2018-11-07T11:13:07.832Z,13.00
2018-11-07T11:15:36.176Z,13.00
2018-11-07T11:18:04.700Z,13.00
2018-11-07T11:20:33.014Z,13.10
2018-11-07T11:23:01.369Z,13.10
2018-11-07T11:25:29.681Z,13.10
2018-11-07T11:27:58.091Z,13.20
2018-11-07T11:30:26.417Z,13.10
2018-11-07T11:32:54.771Z,13.10
2018-11-07T11:35:23.120Z,13.20
2018-11-07T11:37:51.489Z,13.10
2018-11-07T11:40:19.808Z,13.20
2018-11-07T11:42:48.151Z,13.10
2018-11-07T11:45:17.204Z,13.20
2018-11-07T11:47:46.016Z,13.10
2018-11-07T11:50:16.964Z,13.10
2018-11-07T11:52:46.305Z,13.20
2018-11-07T11:55:14.652Z,13.30
2018-11-07T11:57:43.513Z,13.40
2018-11-07T12:00:14.263Z,13.30
2018-11-07T12:02:42.677Z,13.40
2018-11-07T12:05:12.224Z,13.40
2018-11-07T12:07:40.964Z,13.30
2018-11-07T12:10:16.331Z,13.30
2018-11-07T12:12:46.552Z,13.30
2018-11-07T12:15:15.600Z,13.20
2018-11-07T12:17:43.964Z,13.20
2018-11-07T12:20:12.631Z,13.30
2018-11-07T12:22:41.137Z,13.30
2018-11-07T12:25:11.045Z,13.30
2018-11-07T12:27:40.841Z,13.40
2018-11-07T12:30:12.675Z,13.40
2018-11-07T12:32:41.471Z,13.30
2018-11-07T12:35:09.836Z,13.30
2018-11-07T12:37:38.196Z,13.20
2018-11-07T12:40:07.397Z,13.20
2018-11-07T12:42:35.877Z,13.20
2018-11-07T12:45:04.392Z,13.20
2018-11-07T12:47:32.715Z,13.20
2018-11-07T12:50:01.169Z,13.30
2018-11-07T12:52:29.388Z,13.30
2018-11-07T12:54:57.729Z,13.40
2018-11-07T12:57:26.380Z,13.40
2018-11-07T12:59:54.449Z,13.40
2018-11-07T13:04:36.378Z,13.40
2018-11-07T13:07:04.761Z,13.50
2018-11-07T13:09:33.149Z,13.40
2018-11-07T13:12:01.464Z,13.40
2018-11-07T13:14:29.821Z,13.50
2018-11-07T13:16:58.669Z,13.50
2018-11-07T13:19:27.008Z,13.50
2018-11-07T13:21:55.567Z,13.50
2018-11-07T13:24:23.905Z,13.50
2018-11-07T13:26:52.276Z,13.50
2018-11-07T13:29:20.631Z,13.50
2018-11-07T13:31:48.960Z,13.60
2018-11-07T13:34:17.307Z,13.60
2018-11-07T13:36:45.670Z,13.60
2018-11-07T13:39:14.407Z,13.50
2018-11-07T13:41:42.685Z,13.40
2018-11-07T13:44:11.159Z,13.30
2018-11-07T13:46:39.517Z,13.20
2018-11-07T13:49:07.869Z,13.20
2018-11-07T13:51:36.345Z,13.00
2018-11-07T13:54:04.717Z,12.90
2018-11-07T13:56:33.037Z,12.60
2018-11-07T13:59:01.370Z,12.60
2018-11-07T14:01:30.157Z,12.50
2018-11-07T14:03:58.644Z,12.50
2018-11-07T14:06:27.039Z,12.40
2018-11-07T14:08:55.380Z,12.40
2018-11-07T14:11:23.684Z,12.50
2018-11-07T14:13:52.012Z,12.60
2018-11-07T14:16:20.354Z,12.60
2018-11-07T14:18:48.717Z,12.70
2018-11-07T14:21:17.042Z,12.70
2018-11-07T14:23:45.567Z,12.70
2018-11-07T14:26:13.891Z,12.70
2018-11-07T14:28:42.332Z,12.70
2018-11-07T14:31:10.625Z,12.60
2018-11-07T14:33:38.980Z,12.60
2018-11-07T14:36:07.311Z,12.60
2018-11-07T14:38:35.704Z,12.50
2018-11-07T14:41:04.020Z,12.40
2018-11-07T14:43:32.355Z,12.30
2018-11-07T14:46:00.697Z,12.30
2018-11-07T14:48:29.048Z,12.30
2018-11-07T14:50:57.359Z,12.40
2018-11-07T14:53:25.741Z,12.40
2018-11-07T14:55:54.076Z,12.40
2018-11-07T14:58:22.465Z,12.30
2018-11-07T15:00:50.772Z,12.30
2018-11-07T15:03:19.117Z,12.30
2018-11-07T15:05:47.476Z,12.10
2018-11-07T15:08:15.966Z,12.00
2018-11-07T15:10:44.314Z,11.90
2018-11-07T15:13:12.793Z,11.80
2018-11-07T15:15:42.122Z,11.70
2018-11-07T15:18:10.435Z,11.60
2018-11-07T15:20:38.803Z,11.50
2018-11-07T15:23:07.219Z,11.50
2018-11-07T15:25:35.559Z,11.40
2018-11-07T15:28:03.892Z,11.30
2018-11-07T15:30:32.289Z,11.20
2018-11-07T15:33:00.607Z,11.10
2018-11-07T15:35:29.036Z,10.90
2018-11-07T15:37:57.357Z,10.90
2018-11-07T15:40:25.816Z,10.90
2018-11-07T15:42:54.243Z,10.70
2018-11-07T15:45:22.601Z,10.70
2018-11-07T15:47:50.916Z,10.50
2018-11-07T15:50:24.570Z,10.40
2018-11-07T15:52:53.011Z,10.30
2018-11-07T15:55:21.355Z,10.10
2018-11-07T15:57:49.671Z,10.00
2018-11-07T16:00:18.888Z,10.00
2018-11-07T16:02:47.205Z,9.90
2018-11-07T16:05:16.376Z,9.90
2018-11-07T16:07:44.788Z,9.80
2018-11-07T16:10:14.254Z,9.80
2018-11-07T16:12:42.972Z,9.70
2018-11-07T16:15:13.289Z,9.70
2018-11-07T16:17:42.024Z,9.70
2018-11-07T16:20:12.676Z,9.70
2018-11-07T16:22:42.027Z,9.60
2018-11-07T16:25:10.480Z,9.40
2018-11-07T16:27:39.196Z,9.30
2018-11-07T16:30:10.130Z,9.30
2018-11-07T16:32:38.804Z,9.20
2018-11-07T16:35:07.345Z,9.10
2018-11-07T16:37:36.146Z,9.00
2018-11-07T16:40:05.545Z,9.00
2018-11-07T16:42:33.931Z,8.90
2018-11-07T16:45:02.277Z,8.70
2018-11-07T16:47:30.633Z,8.50
2018-11-07T16:49:58.965Z,8.50
2018-11-07T16:52:27.296Z,8.40
2018-11-07T16:54:55.627Z,8.40
2018-11-07T16:57:23.945Z,8.30
2018-11-07T16:59:52.256Z,8.10
2018-11-07T17:02:20.611Z,8.20
2018-11-07T17:04:49.111Z,8.40
2018-11-07T17:07:17.428Z,8.30
2018-11-07T17:09:45.755Z,8.10
2018-11-07T17:12:14.145Z,8.20
2018-11-07T17:14:42.478Z,8.30
2018-11-07T17:17:10.796Z,8.10
2018-11-07T17:19:39.401Z,8.30
2018-11-07T17:22:07.771Z,8.50
2018-11-07T17:24:36.220Z,8.20
2018-11-07T17:27:04.461Z,8.10
2018-11-07T17:29:33.588Z,8.10
2018-11-07T17:32:03.302Z,7.90
2018-11-07T17:34:31.564Z,7.70
2018-11-07T17:36:59.905Z,7.70
2018-11-07T17:39:28.229Z,7.80
2018-11-07T17:41:56.553Z,7.80
2018-11-07T17:44:24.891Z,7.80
2018-11-07T17:46:53.232Z,7.70
2018-11-07T17:49:21.549Z,7.60
2018-11-07T17:51:50.037Z,7.60
2018-11-07T17:54:18.359Z,7.50
2018-11-07T17:56:46.694Z,7.40
2018-11-07T17:59:15.036Z,7.50
2018-11-07T18:01:43.377Z,7.30
2018-11-07T18:04:12.222Z,7.20
2018-11-07T18:06:40.567Z,7.10
2018-11-07T18:09:09.360Z,7.00
2018-11-07T18:11:37.978Z,7.00
2018-11-07T18:14:06.958Z,7.00
2018-11-07T18:16:35.326Z,7.00
2018-11-07T18:19:03.680Z,7.00
2018-11-07T18:21:32.261Z,6.90
2018-11-07T18:24:00.584Z,6.80
2018-11-07T18:26:29.037Z,6.80
2018-11-07T18:28:57.338Z,6.70
2018-11-07T18:31:25.675Z,6.70
2018-11-07T18:33:53.989Z,6.70
2018-11-07T18:36:22.336Z,6.60
2018-11-07T18:38:50.703Z,6.60
2018-11-07T18:41:19.033Z,6.60
2018-11-07T18:43:47.348Z,6.60
2018-11-07T18:46:15.721Z,6.60
2018-11-07T18:48:44.036Z,6.40
2018-11-07T18:51:12.392Z,6.40
2018-11-07T18:53:40.839Z,6.30
2018-11-07T18:56:09.129Z,6.20
2018-11-07T18:58:38.443Z,6.10
2018-11-07T19:01:06.936Z,6.10
2018-11-07T19:03:35.264Z,6.10
2018-11-07T19:06:03.675Z,6.10
2018-11-07T19:08:32.008Z,6.00
2018-11-07T19:11:00.317Z,5.90
2018-11-07T19:13:28.756Z,5.90
2018-11-07T19:15:57.080Z,6.00
2018-11-07T19:18:25.397Z,6.00
2018-11-07T19:23:07.771Z,6.00
2018-11-07T19:25:36.123Z,5.80
2018-11-07T19:28:04.506Z,5.80
2018-11-07T19:30:32.880Z,5.80
2018-11-07T19:33:01.242Z,5.80
2018-11-07T19:35:29.528Z,5.80
2018-11-07T19:37:57.874Z,5.70
2018-11-07T19:40:26.640Z,5.70
2018-11-07T19:42:54.978Z,5.70
2018-11-07T19:45:23.840Z,5.70
2018-11-07T19:47:52.332Z,5.50
2018-11-07T19:50:21.323Z,5.30
2018-11-07T19:52:50.456Z,5.20
2018-11-07T19:55:20.230Z,5.20
2018-11-07T19:57:55.024Z,5.40
2018-11-07T20:00:23.356Z,5.40
2018-11-07T20:02:51.761Z,5.40
2018-11-07T20:05:20.092Z,5.40
2018-11-07T20:07:48.437Z,5.40
2018-11-07T20:10:18.056Z,5.40
2018-11-07T20:12:46.392Z,5.50
2018-11-07T20:15:15.787Z,5.50
2018-11-07T20:17:44.123Z,5.50
2018-11-07T20:20:13.008Z,5.40
2018-11-07T20:22:41.489Z,5.40
2018-11-07T20:25:10.793Z,5.40
2018-11-07T20:27:39.252Z,5.50
2018-11-07T20:30:09.323Z,5.50
2018-11-07T20:32:37.835Z,5.50
2018-11-07T20:35:07.637Z,5.60
2018-11-07T20:37:35.973Z,5.60
2018-11-07T20:40:04.837Z,5.40
2018-11-07T20:42:33.159Z,5.20
2018-11-07T20:45:01.544Z,5.10
2018-11-07T20:47:31.102Z,5.10
2018-11-07T20:49:59.644Z,5.20
2018-11-07T20:52:27.994Z,5.20
2018-11-07T20:54:56.429Z,5.20
2018-11-07T20:57:24.660Z,5.20
2018-11-07T20:59:53.008Z,5.30
2018-11-07T21:02:21.353Z,5.30
2018-11-07T21:04:49.663Z,5.40
2018-11-07T21:07:17.993Z,5.40
2018-11-07T21:09:46.325Z,5.30
2018-11-07T21:12:14.773Z,5.20
2018-11-07T21:14:43.071Z,5.20
2018-11-07T21:17:11.453Z,5.10
2018-11-07T21:19:39.764Z,5.10
2018-11-07T21:22:09.552Z,5.10
2018-11-07T21:24:37.959Z,5.10
2018-11-07T21:27:06.392Z,5.10
2018-11-07T21:29:35.033Z,5.10
2018-11-07T21:32:03.372Z,5.00
2018-11-07T21:34:31.787Z,5.00
2018-11-07T21:37:00.119Z,5.00
2018-11-07T21:39:28.436Z,4.90
2018-11-07T21:41:56.767Z,4.90
2018-11-07T21:44:25.080Z,4.90
2018-11-07T21:46:53.409Z,4.80
2018-11-07T21:49:21.772Z,4.80
2018-11-07T21:51:50.093Z,4.80
2018-11-07T21:54:18.395Z,4.80
2018-11-07T21:56:46.735Z,4.80
2018-11-07T21:59:15.044Z,4.80
2018-11-07T22:01:43.383Z,4.80
2018-11-07T22:04:11.696Z,4.80
2018-11-07T22:06:40.008Z,4.80
2018-11-07T22:09:09.599Z,4.90
2018-11-07T22:11:37.903Z,4.80
2018-11-07T22:14:06.295Z,4.80
2018-11-07T22:16:34.640Z,4.70
2018-11-07T22:19:03.080Z,4.80
2018-11-07T22:21:31.388Z,4.70
2018-11-07T22:23:59.787Z,4.60
2018-11-07T22:26:28.069Z,4.50
2018-11-07T22:28:56.636Z,4.40
2018-11-07T22:31:25.019Z,4.50
2018-11-07T22:33:53.320Z,4.40
2018-11-07T22:36:21.624Z,4.40
2018-11-07T22:38:49.964Z,4.40
2018-11-07T22:41:18.472Z,4.40
2018-11-07T22:43:46.987Z,4.40
2018-11-07T22:46:15.424Z,4.30
2018-11-07T22:48:43.879Z,4.40
2018-11-07T22:51:12.213Z,4.30
2018-11-07T22:53:40.552Z,4.30
2018-11-07T22:56:08.869Z,4.20
2018-11-07T22:58:37.205Z,4.30
2018-11-07T23:01:11.228Z,4.20
2018-11-07T23:03:39.574Z,4.10
2018-11-07T23:06:07.903Z,4.00
2018-11-07T23:08:36.241Z,3.90
2018-11-07T23:11:04.559Z,3.90
2018-11-07T23:13:32.905Z,4.00
2018-11-07T23:16:01.221Z,4.00
2018-11-07T23:18:29.549Z,4.00
2018-11-07T23:20:57.882Z,4.00
2018-11-07T23:23:26.229Z,4.00
2018-11-07T23:25:54.556Z,4.00
2018-11-07T23:28:22.885Z,4.00
2018-11-07T23:30:51.195Z,4.00
2018-11-07T23:33:19.512Z,4.00
2018-11-07T23:35:47.825Z,4.10
2018-11-07T23:38:16.240Z,4.10
2018-11-07T23:40:44.556Z,4.00
2018-11-07T23:43:12.897Z,3.90
2018-11-07T23:45:41.214Z,3.80
2018-11-07T23:48:09.548Z,3.70
2018-11-07T23:50:37.869Z,3.70
2018-11-07T23:53:06.413Z,3.70
2018-11-07T23:55:34.741Z,3.70
2018-11-07T23:58:03.079Z,3.80
